Time;durP1;ratioP1;P1;durP2;ratioP2;P2;SDS_P1;SDS_P2;PMS_P1;PMS_P2;Temp;Humidity;BMP_temperature;BMP_pressure;BME280_temperature;BME280_humidity;BME280_pressure;Samples;Min_cycle;Max_cycle;Signal;HPM_P1;HPM_P2
2024/02/21 00:01:29;;;;;;;12.87;8.53;;;;;;;9.10;89.84;101194.28;5088777;28;20281;-74
2024/02/21 00:03:56;;;;;;;11.17;8.90;;;;;;;9.25;89.73;101188.19;5088860;28;20261;-74
2024/02/21 00:06:22;;;;;;;18.23;10.07;;;;;;;9.17;90.53;101166.47;5088371;28;20702;-73
2024/02/21 00:08:50;;;;;;;12.10;8.97;;;;;;;9.18;90.76;101162.13;5088841;28;20257;-74
2024/02/21 00:11:16;;;;;;;11.43;9.23;;;;;;;9.08;92.13;101141.34;5088715;28;20207;-75
2024/02/21 00:13:43;;;;;;;11.60;9.43;;;;;;;9.02;91.24;101146.56;5088170;28;20240;-75
2024/02/21 00:16:10;;;;;;;12.73;9.57;;;;;;;8.83;92.59;101137.00;5083761;28;20239;-75
2024/02/21 00:18:36;;;;;;;15.90;10.83;;;;;;;9.06;92.66;101114.44;5089559;28;20628;-74
2024/02/21 00:21:03;;;;;;;18.20;10.93;;;;;;;8.96;93.21;101107.50;5089567;28;20224;-76
2024/02/21 00:23:29;;;;;;;13.97;11.17;;;;;;;8.87;94.39;101069.31;5090549;28;21547;-74
2024/02/21 00:25:57;;;;;;;15.17;10.97;;;;;;;8.99;94.45;101059.75;5090467;28;20731;-75
2024/02/21 00:28:23;;;;;;;14.43;11.07;;;;;;;9.07;93.48;101063.19;5091355;28;20204;-75
2024/02/21 00:30:50;;;;;;;16.93;12.23;;;;;;;8.96;94.19;101068.44;5091800;28;20261;-74
2024/02/21 00:33:17;;;;;;;17.60;12.50;;;;;;;9.02;94.94;101036.28;5091701;28;20231;-74
2024/02/21 00:35:43;;;;;;;15.60;11.77;;;;;;;9.12;93.84;101051.03;5083761;28;20242;-75
2024/02/21 00:38:10;;;;;;;18.17;11.00;;;;;;;9.14;93.41;101063.19;5091224;28;20201;-73
2024/02/21 00:40:36;;;;;;;21.47;12.00;;;;;;;9.20;93.39;101064.91;5082803;28;20200;-75
2024/02/21 00:43:04;;;;;;;20.47;11.27;;;;;;;9.19;93.25;101063.16;5091227;28;20234;-73
2024/02/21 00:45:30;;;;;;;15.07;12.00;;;;;;;9.15;93.17;101059.69;5091343;28;20204;-73
2024/02/21 00:47:57;;;;;;;15.63;11.60;;;;;;;9.14;93.39;101057.97;5089865;28;20207;-74
2024/02/21 00:50:23;;;;;;;13.83;11.70;;;;;;;9.11;94.04;101052.75;5091292;28;20674;-74
2024/02/21 00:52:49;;;;;;;16.93;13.37;;;;;;;9.11;93.56;101051.91;5091003;28;20217;-75
2024/02/21 00:55:16;;;;;;;16.13;11.00;;;;;;;9.10;94.00;101051.03;5091254;28;20204;-75
2024/02/21 00:57:42;;;;;;;16.90;12.07;;;;;;;9.03;94.27;101038.91;5091575;28;20216;-75
2024/02/21 01:00:11;;;;;;;15.20;11.50;;;;;;;9.01;94.37;101058.00;5091399;28;20208;-74
2024/02/21 01:02:37;;;;;;;14.70;11.50;;;;;;;9.13;94.01;101050.16;5087389;28;20234;-75
2024/02/21 01:05:04;;;;;;;13.47;11.80;;;;;;;8.76;94.42;101050.25;5086859;28;20204;-74
2024/02/21 01:07:30;;;;;;;16.07;11.73;;;;;;;9.03;94.68;101033.69;5089906;28;20249;-74
2024/02/21 01:09:57;;;;;;;18.63;12.50;;;;;;;8.89;94.90;101031.13;5091059;28;20250;-75
2024/02/21 01:12:23;;;;;;;18.50;12.53;;;;;;;9.03;93.64;101033.69;5090860;28;20196;-75
2024/02/21 01:14:50;;;;;;;18.93;11.17;;;;;;;9.10;93.46;101031.97;5091780;28;20208;-75
2024/02/21 01:17:17;;;;;;;18.93;12.57;;;;;;;9.13;92.94;101038.00;5089377;28;20261;-74
2024/02/21 01:19:44;;;;;;;19.23;11.83;;;;;;;9.27;92.21;101057.94;5091535;28;20637;-74
2024/02/21 01:22:10;;;;;;;21.37;11.90;;;;;;;9.30;91.46;101068.34;5090704;28;20238;-75
2024/02/21 01:24:36;;;;;;;23.47;12.50;;;;;;;9.17;91.58;101077.94;5089892;28;20220;-74
2024/02/21 01:27:03;;;;;;;21.90;11.50;;;;;;;9.24;92.02;101065.78;5091344;28;20208;-73
2024/02/21 01:29:29;;;;;;;19.40;11.93;;;;;;;9.13;91.66;101073.59;5090578;28;20207;-74
2024/02/21 01:31:56;;;;;;;19.43;12.17;;;;;;;9.39;90.91;101067.44;5084632;28;20254;-74
2024/02/21 01:34:23;;;;;;;15.63;10.80;;;;;;;9.47;90.35;101084.75;5087816;28;20232;-73
2024/02/21 01:36:50;;;;;;;14.97;11.07;;;;;;;9.65;90.09;101098.59;5090509;28;20201;-73
2024/02/21 01:39:16;;;;;;;16.90;11.67;;;;;;;9.54;89.99;101109.94;5082235;28;20254;-75
2024/02/21 01:41:42;;;;;;;17.30;12.23;;;;;;;9.55;89.73;101108.19;5090891;28;20269;-73
2024/02/21 01:44:09;;;;;;;15.43;11.53;;;;;;;9.53;90.26;101094.31;5091050;28;20224;-75
2024/02/21 01:46:35;;;;;;;19.23;11.77;;;;;;;9.64;89.65;101104.69;5089166;28;20249;-74
2024/02/21 01:49:02;;;;;;;16.57;11.53;;;;;;;9.38;89.74;101110.88;5090761;28;20258;-75
2024/02/21 01:51:31;;;;;;;13.47;11.13;;;;;;;9.61;89.42;101105.56;5089963;28;20634;-74
2024/02/21 01:53:58;;;;;;;12.53;11.07;;;;;;;9.72;88.47;101123.78;5090074;28;20281;-73
2024/02/21 01:56:25;;;;;;;16.33;11.80;;;;;;;9.71;88.16;101146.38;5082467;28;20208;-74
2024/02/21 01:58:52;;;;;;;14.67;11.27;;;;;;;9.77;88.33;101144.59;5094685;28;20212;-75
2024/02/21 02:01:18;;;;;;;18.57;12.17;;;;;;;9.60;88.18;101160.31;5093448;28;20215;-75
2024/02/21 02:03:46;;;;;;;13.30;11.10;;;;;;;9.69;87.49;101157.66;5094488;28;20219;-75
2024/02/21 02:06:13;;;;;;;19.10;11.87;;;;;;;9.64;87.59;101159.44;5094156;28;20212;-75
2024/02/21 02:08:41;;;;;;;12.70;11.33;;;;;;;9.73;87.42;101160.28;5094069;28;20749;-74
2024/02/21 02:11:07;;;;;;;14.23;12.00;;;;;;;9.63;87.62;101155.97;5093549;28;20208;-75
2024/02/21 02:13:34;;;;;;;15.07;13.00;;;;;;;9.71;87.41;101151.59;5093828;28;20232;-75
2024/02/21 02:16:00;;;;;;;13.03;11.53;;;;;;;9.80;87.39;101142.84;5093899;28;20231;-74
2024/02/21 02:18:27;;;;;;;22.20;12.90;;;;;;;9.77;87.22;101142.84;5094099;28;20621;-75
2024/02/21 02:20:53;;;;;;;16.03;12.37;;;;;;;9.81;86.60;101144.59;5094276;28;20267;-75
2024/02/21 02:23:25;;;;;;;17.87;12.47;;;;;;;9.98;86.33;101143.66;5093125;28;20638;-75
2024/02/21 02:25:52;;;;;;;19.60;12.33;;;;;;;10.06;85.42;101162.72;5094554;28;20231;-75
2024/02/21 02:28:19;;;;;;;22.37;12.83;;;;;;;10.15;85.24;101183.56;5094187;28;20669;-75
2024/02/21 02:30:46;;;;;;;14.33;12.80;;;;;;;10.03;85.16;101197.53;5093963;28;20200;-74
2024/02/21 02:33:12;;;;;;;19.40;13.30;;;;;;;9.72;86.67;101168.94;5093856;28;20698;-76
2024/02/21 02:35:39;;;;;;;16.87;12.20;;;;;;;9.66;87.17;101155.94;5093326;28;20212;-75
2024/02/21 02:38:06;;;;;;;19.30;12.97;;;;;;;9.56;88.06;101122.13;5093953;28;20200;-74
2024/02/21 02:40:35;;;;;;;18.20;12.80;;;;;;;9.54;88.54;101091.69;5091850;28;20257;-75
2024/02/21 02:43:02;;;;;;;16.47;13.40;;;;;;;9.38;88.60;101081.34;5087314;28;20642;-73
2024/02/21 02:45:28;;;;;;;19.93;12.90;;;;;;;9.44;88.00;101071.75;5093138;28;20677;-74
2024/02/21 02:47:56;;;;;;;16.90;13.07;;;;;;;9.50;87.98;101050.03;5092713;28;20258;-75
2024/02/21 02:50:23;;;;;;;18.30;13.00;;;;;;;9.53;87.96;101056.09;5093488;28;20219;-72
2024/02/21 02:52:50;;;;;;;15.07;13.47;;;;;;;9.65;87.62;101057.78;5085423;28;20764;-75
2024/02/21 02:55:16;;;;;;;19.90;13.57;;;;;;;9.73;87.33;101068.13;5093137;28;20257;-75
2024/02/21 02:57:44;;;;;;;15.50;13.07;;;;;;;9.69;87.09;101080.34;5090495;28;20200;-75
2024/02/21 03:00:12;;;;;;;16.23;14.53;;;;;;;9.73;87.00;101069.03;5088052;28;20230;-74
2024/02/21 03:02:39;;;;;;;15.63;13.50;;;;;;;9.83;86.58;101080.28;5092072;28;20775;-74
2024/02/21 03:05:14;;;;;;;17.17;13.73;;;;;;;9.73;86.87;101086.38;5092983;28;20571;-74
2024/02/21 03:07:40;;;;;;;18.60;13.67;;;;;;;9.76;86.56;101085.53;5092680;28;20203;-76
2024/02/21 03:10:07;;;;;;;16.17;13.40;;;;;;;9.76;86.43;101091.59;5092940;28;20212;-74
2024/02/21 03:12:34;;;;;;;14.90;12.50;;;;;;;9.64;86.17;101095.13;5092520;28;20262;-75
2024/02/21 03:15:01;;;;;;;19.57;14.00;;;;;;;9.79;86.21;101089.00;5092794;28;20208;-74
2024/02/21 03:17:28;;;;;;;16.70;12.87;;;;;;;9.61;85.98;101102.94;5091444;28;20554;-74
2024/02/21 03:19:55;;;;;;;14.07;12.73;;;;;;;9.39;86.50;101091.75;5092674;28;20216;-76
2024/02/21 03:22:21;;;;;;;17.43;13.63;;;;;;;9.43;86.79;101070.00;5084167;28;20311;-74
2024/02/21 03:24:48;;;;;;;17.00;13.47;;;;;;;9.62;87.17;101049.97;5092781;28;20255;-73
2024/02/21 03:27:14;;;;;;;16.87;13.83;;;;;;;9.65;86.15;101046.47;5092368;28;20254;-75
2024/02/21 03:29:41;;;;;;;22.33;14.73;;;;;;;9.66;86.17;101051.69;5092586;28;20204;-75
2024/02/21 03:32:08;;;;;;;18.63;13.77;;;;;;;9.72;85.80;101042.97;5091718;28;20736;-74
2024/02/21 03:34:35;;;;;;;16.67;13.70;;;;;;;9.81;84.60;101058.56;5092155;28;20265;-74
2024/02/21 03:37:01;;;;;;;21.07;14.37;;;;;;;9.88;84.43;101070.66;5092382;28;20204;-75
2024/02/21 03:39:27;;;;;;;14.17;12.73;;;;;;;9.66;84.17;101084.69;5092189;28;20786;-73
2024/02/21 03:41:54;;;;;;;15.70;13.97;;;;;;;9.73;84.34;101074.25;5092488;28;20655;-74
2024/02/21 03:44:20;;;;;;;16.40;12.60;;;;;;;9.73;84.25;101078.56;5092321;28;20229;-73
2024/02/21 03:46:46;;;;;;;18.53;14.80;;;;;;;9.79;84.57;101068.13;5091603;28;20714;-75
2024/02/21 03:49:14;;;;;;;17.07;13.60;;;;;;;9.65;83.91;101068.19;5093039;28;20205;-75
2024/02/21 03:51:40;;;;;;;19.40;14.00;;;;;;;9.86;83.87;101063.75;5092453;28;20250;-74
2024/02/21 03:54:07;;;;;;;16.10;12.37;;;;;;;9.71;83.07;101082.91;5091602;28;20228;-74
2024/02/21 03:56:33;;;;;;;14.87;13.00;;;;;;;9.70;83.59;101082.06;5091865;28;20208;-74
2024/02/21 03:58:59;;;;;;;20.67;13.00;;;;;;;9.78;83.24;101079.41;5091724;28;20674;-74
2024/02/21 04:01:26;;;;;;;20.07;12.40;;;;;;;9.86;82.68;101082.84;5092041;28;20208;-74
2024/02/21 04:03:52;;;;;;;15.27;13.20;;;;;;;9.87;82.37;101079.38;5091809;28;20229;-73
2024/02/21 04:06:20;;;;;;;17.63;13.33;;;;;;;9.80;82.31;101077.66;5092316;28;20257;-75
2024/02/21 04:08:46;;;;;;;19.93;12.53;;;;;;;9.72;82.08;101090.75;5091550;28;20258;-74
2024/02/21 04:11:12;;;;;;;15.53;13.20;;;;;;;9.60;82.42;101109.06;5092165;28;20246;-73
2024/02/21 04:13:39;;;;;;;15.70;12.80;;;;;;;9.63;82.60;101113.38;5091639;28;20273;-74
2024/02/21 04:16:05;;;;;;;13.20;11.90;;;;;;;9.61;82.56;101105.56;5091474;28;20208;-74
2024/02/21 04:18:32;;;;;;;15.80;12.83;;;;;;;9.70;82.56;101107.28;5083110;28;20196;-75
2024/02/21 04:20:58;;;;;;;16.00;13.67;;;;;;;9.76;82.45;101107.25;5091722;28;20556;-74
2024/02/21 04:23:26;;;;;;;15.07;13.57;;;;;;;9.73;82.41;101115.94;5091476;28;20706;-75
2024/02/21 04:25:52;;;;;;;13.73;12.30;;;;;;;9.70;82.74;101115.09;5091540;28;20204;-74
2024/02/21 04:28:19;;;;;;;14.83;12.70;;;;;;;9.69;82.88;101118.56;5092252;28;20290;-73
2024/02/21 04:30:45;;;;;;;17.57;13.33;;;;;;;9.73;82.84;101125.50;5091440;28;20208;-75
2024/02/21 04:33:11;;;;;;;16.00;13.00;;;;;;;9.50;83.23;101123.00;5078669;28;20217;-75
2024/02/21 04:35:39;;;;;;;14.50;13.03;;;;;;;9.73;83.06;101108.13;5088789;28;20196;-75
2024/02/21 04:38:05;;;;;;;14.43;12.03;;;;;;;9.38;83.42;101126.50;5091026;28;20203;-75
2024/02/21 04:40:33;;;;;;;16.10;13.20;;;;;;;9.43;83.75;101106.50;5091702;28;20200;-74
2024/02/21 04:42:59;;;;;;;13.67;12.03;;;;;;;9.49;83.44;101103.00;5086130;28;20274;-74
2024/02/21 04:45:25;;;;;;;13.90;12.57;;;;;;;9.40;83.90;101095.25;5087308;28;20250;-74
2024/02/21 04:47:52;;;;;;;14.13;12.83;;;;;;;9.22;83.98;101083.16;5089766;28;20612;-75
2024/02/21 04:50:18;;;;;;;18.37;12.10;;;;;;;9.41;84.32;101071.75;5090984;28;20204;-74
2024/02/21 04:52:44;;;;;;;14.47;13.03;;;;;;;9.32;84.82;101069.22;5091047;28;20220;-75
2024/02/21 04:55:11;;;;;;;13.77;12.17;;;;;;;9.46;84.25;101075.22;5091039;28;20681;-73
2024/02/21 04:57:38;;;;;;;18.10;13.23;;;;;;;9.36;84.27;101076.13;5091598;28;20230;-73
2024/02/21 05:00:06;;;;;;;16.50;12.20;;;;;;;9.45;84.71;101056.97;5091120;28;20209;-74
2024/02/21 05:02:33;;;;;;;14.53;12.37;;;;;;;9.49;84.36;101066.53;5090470;28;20250;-75
2024/02/21 05:04:59;;;;;;;15.23;13.63;;;;;;;9.41;84.62;101066.56;5090566;28;20204;-73
2024/02/21 05:07:25;;;;;;;15.27;12.07;;;;;;;9.38;84.23;101071.78;5090173;28;20200;-75
2024/02/21 05:09:52;;;;;;;12.97;11.67;;;;;;;9.31;84.49;101073.53;5090897;28;20208;-75
2024/02/21 05:12:20;;;;;;;15.27;12.23;;;;;;;9.57;84.39;101058.66;5091335;28;20215;-75
2024/02/21 05:14:48;;;;;;;17.57;12.37;;;;;;;9.36;84.46;101072.69;5090625;28;20681;-75
2024/02/21 05:17:14;;;;;;;20.90;12.80;;;;;;;9.39;84.90;101062.22;5089936;28;20204;-76
2024/02/21 05:19:40;;;;;;;14.30;12.40;;;;;;;9.40;85.09;101056.16;5090525;28;20196;-73
2024/02/21 05:22:07;;;;;;;17.43;12.70;;;;;;;9.52;84.54;101056.09;5090404;28;20238;-75
2024/02/21 05:24:33;;;;;;;13.47;12.07;;;;;;;9.66;84.46;101054.28;5090721;28;20285;-75
2024/02/21 05:26:59;;;;;;;13.73;12.20;;;;;;;9.23;84.38;101064.03;5089983;28;20670;-74
2024/02/21 05:29:26;;;;;;;16.27;12.13;;;;;;;9.32;85.40;101043.16;5090723;28;20719;-75
2024/02/21 05:31:58;;;;;;;13.97;12.57;;;;;;;9.43;85.15;101033.53;5090713;28;20628;-75
2024/02/21 05:34:25;;;;;;;15.50;12.03;;;;;;;9.39;84.88;101039.63;5094507;28;20652;-74
2024/02/21 05:36:51;;;;;;;16.83;12.63;;;;;;;9.51;84.64;101051.75;5094207;28;20745;-74
2024/02/21 05:39:18;;;;;;;16.00;12.47;;;;;;;9.49;84.89;101017.91;5095163;28;20552;-74
2024/02/21 05:41:44;;;;;;;20.43;13.00;;;;;;;9.32;85.23;101030.13;5086055;28;20208;-74
2024/02/21 05:44:11;;;;;;;18.07;12.47;;;;;;;9.42;85.34;101010.13;5094247;28;20224;-75
2024/02/21 05:46:37;;;;;;;15.87;12.70;;;;;;;9.61;84.86;101026.50;5093422;28;20204;-74
2024/02/21 05:49:05;;;;;;;16.77;12.40;;;;;;;9.49;84.76;101032.63;5094187;28;20325;-75
2024/02/21 05:51:33;;;;;;;16.80;13.30;;;;;;;9.31;85.39;101012.75;5094473;28;20201;-74
2024/02/21 05:54:00;;;;;;;16.23;12.37;;;;;;;9.57;84.96;101010.00;5094412;28;20277;-75
2024/02/21 05:56:26;;;;;;;17.23;12.83;;;;;;;9.44;84.71;101018.78;5094291;28;20204;-73
2024/02/21 05:58:52;;;;;;;15.47;12.93;;;;;;;9.48;84.86;101023.09;5094518;28;20254;-74
2024/02/21 06:01:19;;;;;;;16.17;11.43;;;;;;;9.25;84.92;101020.59;5093363;28;20666;-75
2024/02/21 06:03:45;;;;;;;13.67;12.27;;;;;;;9.35;85.83;100993.63;5093636;28;20783;-75
2024/02/21 06:06:14;;;;;;;15.87;13.17;;;;;;;9.44;85.34;100998.81;5094242;28;20261;-76
2024/02/21 06:08:40;;;;;;;15.80;12.70;;;;;;;9.26;85.88;100991.09;5093833;28;20198;-75
2024/02/21 06:11:07;;;;;;;13.43;11.93;;;;;;;9.37;85.73;100970.19;5094102;28;20242;-74
2024/02/21 06:13:33;;;;;;;15.65;14.05;;;;;;;9.50;85.36;100982.28;5092755;28;20432;-73
2024/02/21 06:15:59;;;;;;;13.80;12.43;;;;;;;9.48;84.71;101000.50;5093238;28;20208;-74
2024/02/21 06:18:26;;;;;;;14.43;11.47;;;;;;;9.22;85.38;100994.56;5094060;28;20227;-75
2024/02/21 06:20:52;;;;;;;16.43;11.53;;;;;;;9.50;84.96;100985.72;5093522;28;20670;-74
2024/02/21 06:23:20;;;;;;;14.40;12.60;;;;;;;9.49;85.09;100985.72;5093377;28;20269;-76
2024/02/21 06:25:47;;;;;;;14.47;13.00;;;;;;;9.37;85.68;100984.06;5091647;28;20204;-75
2024/02/21 06:28:14;;;;;;;13.87;11.90;;;;;;;9.45;86.01;100968.38;5090019;28;20200;-74
2024/02/21 06:30:40;;;;;;;17.67;12.20;;;;;;;9.60;84.96;100978.72;5091333;28;20200;-73
2024/02/21 06:33:07;;;;;;;24.73;12.50;;;;;;;9.50;84.39;100997.91;5092394;28;20269;-70
2024/02/21 06:35:34;;;;;;;13.50;11.00;;;;;;;9.57;84.23;101006.53;5093997;28;20204;-71
2024/02/21 06:38:00;;;;;;;12.20;11.00;;;;;;;9.62;83.82;101010.00;5093896;28;20552;-70
2024/02/21 06:40:28;;;;;;;12.73;11.50;;;;;;;9.62;83.94;101013.47;5093838;28;20616;-72
2024/02/21 06:42:54;;;;;;;12.70;11.47;;;;;;;9.38;83.99;101019.69;5093549;28;20228;-71
2024/02/21 06:45:20;;;;;;;12.20;11.00;;;;;;;9.40;84.71;100999.69;5093952;28;20270;-71
2024/02/21 06:47:47;;;;;;;14.23;11.17;;;;;;;9.56;83.99;100994.41;5092915;28;20729;-72
2024/02/21 06:50:13;;;;;;;13.57;11.63;;;;;;;9.56;84.00;100995.25;5093880;28;20707;-72
2024/02/21 06:52:39;;;;;;;13.80;10.90;;;;;;;9.60;83.70;101003.94;5093584;28;20220;-72
2024/02/21 06:55:06;;;;;;;13.40;11.67;;;;;;;9.67;83.62;101006.50;5092795;28;20204;-72
2024/02/21 06:57:34;;;;;;;13.20;11.80;;;;;;;9.22;84.09;101023.22;5092688;28;20230;-71
2024/02/21 07:00:00;;;;;;;13.60;11.03;;;;;;;9.51;84.14;101004.84;5091561;28;20204;-72
2024/02/21 07:02:26;;;;;;;13.63;12.30;;;;;;;9.44;84.81;101006.63;5090984;28;20233;-71
2024/02/21 07:04:53;;;;;;;15.77;11.80;;;;;;;9.22;85.28;101015.41;5091567;28;20227;-74
2024/02/21 07:07:19;;;;;;;15.47;10.77;;;;;;;9.16;85.75;100992.88;5091354;28;20620;-73
2024/02/21 07:09:48;;;;;;;12.20;10.93;;;;;;;9.31;85.62;100990.16;5091473;28;20937;-74
2024/02/21 07:12:14;;;;;;;14.53;10.50;;;;;;;9.38;85.49;100988.41;5092154;28;20204;-73
2024/02/21 07:14:42;;;;;;;12.40;11.03;;;;;;;9.47;85.03;100995.31;5093416;28;20216;-72
2024/02/21 07:17:08;;;;;;;11.87;10.73;;;;;;;9.39;85.43;100995.34;5084995;28;20277;-72
2024/02/21 07:19:35;;;;;;;17.03;11.07;;;;;;;9.36;85.69;100982.34;5093263;28;20204;-70
2024/02/21 07:22:01;;;;;;;12.03;10.83;;;;;;;9.39;85.62;100979.72;5092860;28;20212;-72
2024/02/21 07:24:27;;;;;;;12.27;10.50;;;;;;;9.32;86.11;100970.22;5092863;28;20228;-72
2024/02/21 07:26:55;;;;;;;12.80;10.00;;;;;;;9.35;85.88;100970.19;5092635;28;20277;-71
2024/02/21 07:29:22;;;;;;;12.20;9.87;;;;;;;9.45;85.91;100961.44;5093357;28;20254;-71
2024/02/21 07:31:51;;;;;;;14.17;9.93;;;;;;;9.40;85.39;100968.44;5093094;28;20208;-72
2024/02/21 07:34:18;;;;;;;11.70;10.53;;;;;;;9.51;85.58;100965.75;5092891;28;20618;-72
2024/02/21 07:36:45;;;;;;;13.93;10.37;;;;;;;9.51;85.60;100958.81;5084291;28;20628;-72
2024/02/21 07:39:11;;;;;;;11.23;10.10;;;;;;;9.25;85.79;100969.34;5093205;28;20265;-73
2024/02/21 07:41:39;;;;;;;12.43;9.40;;;;;;;9.55;85.70;100951.81;5092539;28;20741;-75
2024/02/21 07:44:05;;;;;;;22.23;11.43;;;;;;;9.38;85.62;100964.09;5092860;28;20236;-73
2024/02/21 07:46:31;;;;;;;12.07;9.97;;;;;;;9.60;85.47;100967.44;5091983;28;20200;-73
2024/02/21 07:49:01;;;;;;;11.83;10.50;;;;;;;9.42;85.65;100971.88;5092786;28;20617;-73
2024/02/21 07:51:28;;;;;;;11.60;10.37;;;;;;;9.48;85.86;100971.84;5092674;28;20859;-72
2024/02/21 07:53:55;;;;;;;11.40;10.20;;;;;;;9.42;85.48;100974.50;5091724;28;20278;-73
2024/02/21 07:56:22;;;;;;;12.03;10.63;;;;;;;9.56;85.47;100977.03;5089979;28;20224;-74
2024/02/21 07:58:48;;;;;;;14.37;11.27;;;;;;;9.48;85.81;100974.44;5092338;28;20238;-73
2024/02/21 08:01:20;;;;;;;16.93;11.97;;;;;;;9.34;85.68;100973.66;5091677;28;20196;-73
2024/02/21 08:03:46;;;;;;;13.33;10.77;;;;;;;9.58;85.69;100966.59;5092087;28;20500;-73
2024/02/21 08:06:14;;;;;;;12.80;10.47;;;;;;;9.64;85.19;100967.41;5092357;28;20204;-73
2024/02/21 08:08:41;;;;;;;12.27;10.80;;;;;;;9.62;85.05;100976.13;5092531;28;20200;-72
2024/02/21 08:11:07;;;;;;;11.17;10.07;;;;;;;9.26;85.36;100986.72;5091982;28;20212;-74
2024/02/21 08:13:33;;;;;;;17.63;11.43;;;;;;;9.64;85.41;100970.00;5092871;28;20289;-77
2024/02/21 08:16:00;;;;;;;10.77;9.70;;;;;;;9.67;84.87;100984.75;5091391;28;20209;-77
2024/02/21 08:18:26;;;;;;;11.97;10.70;;;;;;;9.76;84.75;100983.84;5091340;28;20208;-76
2024/02/21 08:20:53;;;;;;;18.87;11.10;;;;;;;9.85;84.13;100994.19;5092259;28;20670;-77
2024/02/21 08:23:21;;;;;;;16.03;10.97;;;;;;;9.79;84.09;101021.19;5091963;28;20701;-77
2024/02/21 08:25:48;;;;;;;15.17;10.80;;;;;;;9.80;84.19;101012.50;5091581;28;20325;-77
2024/02/21 08:28:14;;;;;;;10.90;9.80;;;;;;;10.01;83.98;101008.00;5091689;28;20249;-76
2024/02/21 08:30:44;;;;;;;11.27;10.07;;;;;;;9.83;83.59;101027.22;5091755;28;20633;-77
2024/02/21 08:33:10;;;;;;;11.43;9.13;;;;;;;9.53;84.16;101019.63;5091491;28;20219;-77
2024/02/21 08:35:36;;;;;;;13.40;10.07;;;;;;;9.72;84.19;101014.28;5092007;28;20697;-77
2024/02/21 08:38:03;;;;;;;9.90;8.97;;;;;;;9.74;84.34;100999.50;5091613;28;20208;-77
2024/02/21 08:40:31;;;;;;;12.03;9.03;;;;;;;9.77;84.05;101006.41;5091659;28;20212;-77
2024/02/21 08:42:57;;;;;;;9.70;8.70;;;;;;;9.50;83.64;101016.16;5091857;28;20227;-76
2024/02/21 08:45:23;;;;;;;11.27;8.03;;;;;;;9.67;83.07;101010.81;5091586;28;20220;-76
2024/02/21 08:47:50;;;;;;;13.17;8.40;;;;;;;9.83;82.86;101028.13;5090964;28;20257;-77
2024/02/21 08:50:16;;;;;;;13.43;7.87;;;;;;;9.97;81.90;101043.69;5092027;28;20249;-77
2024/02/21 08:52:42;;;;;;;9.20;7.47;;;;;;;9.91;80.62;101061.94;5091748;28;20635;-77
2024/02/21 08:55:09;;;;;;;8.83;7.17;;;;;;;10.02;80.37;101074.94;5092099;28;20212;-77
2024/02/21 08:57:37;;;;;;;9.70;7.30;;;;;;;10.05;80.40;101077.50;5091278;28;20658;-77
2024/02/21 09:00:09;;;;;;;9.33;7.47;;;;;;;10.20;80.36;101074.81;5091859;28;20684;-77
2024/02/21 09:02:35;;;;;;;9.40;7.33;;;;;;;10.24;79.67;101081.72;5090323;28;20200;-77
2024/02/21 09:05:02;;;;;;;8.30;6.70;;;;;;;10.39;79.39;101096.47;5091253;28;20265;-76
2024/02/21 09:07:28;;;;;;;7.30;6.60;;;;;;;10.51;78.38;101127.69;5085532;28;20200;-77
2024/02/21 09:09:54;;;;;;;7.37;6.67;;;;;;;10.58;78.14;101144.16;5088834;28;20208;-77
2024/02/21 09:12:21;;;;;;;7.87;6.30;;;;;;;10.62;77.08;101171.09;5091716;28;20206;-77
2024/02/21 09:14:50;;;;;;;9.70;6.60;;;;;;;10.61;77.51;101187.66;5091728;28;20200;-77
2024/02/21 09:17:17;;;;;;;9.33;6.50;;;;;;;10.54;79.37;101158.09;5082976;28;20254;-76
2024/02/21 09:19:43;;;;;;;9.00;6.33;;;;;;;10.48;77.01;101192.94;5091485;28;20196;-76
2024/02/21 09:22:09;;;;;;;11.83;5.60;;;;;;;10.58;76.98;101174.63;5090945;28;20666;-76
2024/02/21 09:24:36;;;;;;;11.37;6.20;;;;;;;10.58;76.15;101213.78;5091014;28;20235;-76
2024/02/21 09:27:02;;;;;;;7.60;6.20;;;;;;;10.39;76.55;101219.13;5090447;28;20262;-76
2024/02/21 09:29:29;;;;;;;6.70;6.10;;;;;;;10.56;76.32;101212.91;5091272;28;20200;-76
2024/02/21 09:31:56;;;;;;;6.70;5.87;;;;;;;10.45;75.73;101239.09;5090182;28;20277;-76
2024/02/21 09:34:23;;;;;;;8.33;5.60;;;;;;;10.48;75.27;101250.38;5091009;28;20659;-76
2024/02/21 09:36:49;;;;;;;7.57;5.63;;;;;;;10.41;74.94;101259.13;5082769;28;20827;-76
2024/02/21 09:39:18;;;;;;;11.60;5.80;;;;;;;10.55;74.63;101263.41;5090892;28;20204;-76
2024/02/21 09:41:48;;;;;;;5.83;4.83;;;;;;;10.51;73.39;101262.56;5091084;28;20210;-77
2024/02/21 09:44:15;;;;;;;6.30;5.00;;;;;;;10.63;73.29;101295.56;5090939;28;20702;-77
2024/02/21 09:46:52;;;;;;;6.93;5.53;;;;;;;10.63;73.82;101290.34;5090374;28;20205;-77
2024/02/21 09:49:27;;;;;;;9.20;5.70;;;;;;;10.73;73.94;101285.03;5091110;28;20676;-77
2024/02/21 09:51:55;;;;;;;5.90;4.60;;;;;;;10.82;74.05;101275.41;5090774;28;20241;-77
2024/02/21 09:54:21;;;;;;;8.27;5.07;;;;;;;10.60;73.20;101309.47;5091425;28;20298;-77
2024/02/21 09:56:48;;;;;;;5.70;4.93;;;;;;;10.55;72.07;101318.22;5090700;28;20775;-77
2024/02/21 09:59:16;;;;;;;6.13;4.80;;;;;;;10.85;72.88;101309.34;5091660;28;20201;-77
2024/02/21 10:01:43;;;;;;;6.37;4.90;;;;;;;10.80;73.02;101318.94;5094332;28;20200;-78
2024/02/21 10:04:09;;;;;;;5.20;4.50;;;;;;;10.99;73.37;101312.75;5095730;28;20224;-77
2024/02/21 10:06:38;;;;;;;4.67;4.20;;;;;;;10.80;71.80;101313.72;5094978;28;20337;-77
2024/02/21 10:09:06;;;;;;;5.17;3.50;;;;;;;10.57;71.18;101345.19;5091854;28;20328;-77
2024/02/21 10:11:34;;;;;;;6.00;4.23;;;;;;;10.85;71.05;101343.31;5092419;28;20201;-77
2024/02/21 10:14:05;;;;;;;5.27;3.80;;;;;;;10.91;70.08;101344.13;5090896;28;20643;-77
2024/02/21 10:16:31;;;;;;;5.20;3.77;;;;;;;10.48;69.08;101387.84;5090465;28;20237;-76
2024/02/21 10:18:57;;;;;;;5.33;3.67;;;;;;;10.86;70.94;101376.38;5093464;28;20216;-76
2024/02/21 10:21:24;;;;;;;4.70;3.80;;;;;;;10.73;70.42;101399.94;5094874;28;20203;-77
2024/02/21 10:23:52;;;;;;;6.13;3.57;;;;;;;10.78;69.67;101391.22;5094561;28;20228;-77
2024/02/21 10:26:20;;;;;;;4.17;3.57;;;;;;;10.91;69.53;101388.53;5094261;28;20204;-77
2024/02/21 10:28:48;;;;;;;4.50;3.30;;;;;;;10.96;69.60;101390.25;5094684;28;20246;-76
2024/02/21 10:31:23;;;;;;;7.57;3.27;;;;;;;11.03;69.76;101384.13;5093569;28;20811;-76
2024/02/21 10:33:55;;;;;;;6.83;3.83;;;;;;;11.30;70.97;101349.13;5093926;28;20231;-75
2024/02/21 10:36:21;;;;;;;4.83;3.30;;;;;;;10.90;67.85;101386.81;5085880;28;20736;-76
2024/02/21 10:38:47;;;;;;;6.80;3.63;;;;;;;11.01;68.30;101398.97;5094226;28;20274;-75
2024/02/21 10:41:15;;;;;;;3.83;3.43;;;;;;;11.06;68.23;101400.69;5094490;28;20249;-76
2024/02/21 10:43:42;;;;;;;5.47;2.80;;;;;;;11.00;68.04;101400.72;5094163;28;20223;-76
2024/02/21 10:46:10;;;;;;;4.67;2.53;;;;;;;11.28;68.93;101379.63;5093051;28;20227;-76
2024/02/21 10:48:43;;;;;;;5.23;3.03;;;;;;;11.40;68.98;101383.91;5088564;28;20296;-75
2024/02/21 10:51:19;;;;;;;5.97;3.03;;;;;;;11.48;67.86;101376.88;5092491;28;20215;-77
2024/02/21 10:53:48;;;;;;;4.13;2.87;;;;;;;11.19;67.09;101409.28;5094006;28;20226;-76
2024/02/21 10:56:23;;;;;;;4.00;2.53;;;;;;;11.52;68.98;101389.06;5093436;28;20204;-76
2024/02/21 10:58:50;;;;;;;4.43;2.90;;;;;;;11.34;66.78;101405.72;5093578;28;20663;-75
2024/02/21 11:01:18;;;;;;;3.70;2.50;;;;;;;11.46;66.34;101413.50;5093268;28;20216;-75
2024/02/21 11:03:48;;;;;;;5.03;3.53;;;;;;;11.46;67.35;101412.63;5093808;28;20253;-75
2024/02/21 11:06:16;;;;;;;4.43;3.47;;;;;;;11.77;67.58;101399.31;5093325;28;20279;-75
2024/02/21 11:08:42;;;;;;;4.07;2.43;;;;;;;11.71;67.37;101392.38;5093259;28;20619;-75
2024/02/21 11:11:10;;;;;;;4.50;2.90;;;;;;;11.40;66.92;101410.06;5085202;28;20238;-75
2024/02/21 11:13:38;;;;;;;6.77;2.83;;;;;;;11.09;65.44;101425.91;5093355;28;20914;-76
2024/02/21 11:16:12;;;;;;;3.93;2.30;;;;;;;11.50;67.20;101407.34;5092967;28;20620;-75
2024/02/21 11:18:38;;;;;;;4.47;2.70;;;;;;;11.51;67.12;101390.78;5093609;28;20210;-77